sensor_id;sensor_type;location;lat;lon;timestamp;temperature;humidity
17190;DHT22;8710;49.880;8.272;2022-07-22T00:02:33;19.50;99.90
17190;DHT22;8710;49.880;8.272;2022-07-22T00:07:28;19.40;99.90
17190;DHT22;8710;49.880;8.272;2022-07-22T00:17:17;19.00;99.90
17190;DHT22;8710;49.880;8.272;2022-07-22T00:24:39;18.80;99.90
17190;DHT22;8710;49.880;8.272;2022-07-22T00:29:33;18.80;99.90
17190;DHT22;8710;49.880;8.272;2022-07-22T00:34:28;18.70;99.90
17190;DHT22;8710;49.880;8.272;2022-07-22T00:41:49;18.60;99.90
17190;DHT22;8710;49.880;8.272;2022-07-22T00:46:43;18.60;99.90
17190;DHT22;8710;49.880;8.272;2022-07-22T00:51:39;18.60;99.90
17190;DHT22;8710;49.880;8.272;2022-07-22T00:56:34;18.60;99.90
17190;DHT22;8710;49.880;8.272;2022-07-22T00:59:05;18.60;99.90
17190;DHT22;8710;49.880;8.272;2022-07-22T01:08:56;18.70;99.90
17190;DHT22;8710;49.880;8.272;2022-07-22T01:13:51;18.70;99.90
17190;DHT22;8710;49.880;8.272;2022-07-22T01:16:18;18.70;99.90
17190;DHT22;8710;49.880;8.272;2022-07-22T01:18:46;18.70;99.90
17190;DHT22;8710;49.880;8.272;2022-07-22T01:21:15;18.60;99.90
17190;DHT22;8710;49.880;8.272;2022-07-22T01:23:43;18.60;99.90
17190;DHT22;8710;49.880;8.272;2022-07-22T01:28:38;18.50;99.90
17190;DHT22;8710;49.880;8.272;2022-07-22T01:31:05;18.50;99.90
17190;DHT22;8710;49.880;8.272;2022-07-22T01:33:33;18.40;99.90
17190;DHT22;8710;49.880;8.272;2022-07-22T01:38:29;18.40;99.90
17190;DHT22;8710;49.880;8.272;2022-07-22T01:43:23;18.30;99.90
17190;DHT22;8710;49.880;8.272;2022-07-22T01:45:52;18.20;99.90
17190;DHT22;8710;49.880;8.272;2022-07-22T01:50:48;18.10;99.90
17190;DHT22;8710;49.880;8.272;2022-07-22T01:58:14;18.00;99.90
17190;DHT22;8710;49.880;8.272;2022-07-22T02:00:41;18.00;99.90
17190;DHT22;8710;49.880;8.272;2022-07-22T02:03:08;17.90;99.90
17190;DHT22;8710;49.880;8.272;2022-07-22T02:05:36;18.00;99.90
17190;DHT22;8710;49.880;8.272;2022-07-22T02:08:04;18.00;99.90
17190;DHT22;8710;49.880;8.272;2022-07-22T02:13:00;17.90;99.90
17190;DHT22;8710;49.880;8.272;2022-07-22T02:17:55;17.90;99.90
17190;DHT22;8710;49.880;8.272;2022-07-22T02:20:22;17.80;99.90
17190;DHT22;8710;49.880;8.272;2022-07-22T02:25:17;17.70;99.90
17190;DHT22;8710;49.880;8.272;2022-07-22T02:32:39;17.70;99.90
17190;DHT22;8710;49.880;8.272;2022-07-22T02:35:07;17.60;99.90
17190;DHT22;8710;49.880;8.272;2022-07-22T02:40:04;17.60;99.90
17190;DHT22;8710;49.880;8.272;2022-07-22T02:49:54;17.60;99.90
17190;DHT22;8710;49.880;8.272;2022-07-22T02:54:48;17.50;99.90
17190;DHT22;8710;49.880;8.272;2022-07-22T03:07:05;17.30;99.90
17190;DHT22;8710;49.880;8.272;2022-07-22T03:14:26;17.40;99.90
17190;DHT22;8710;49.880;8.272;2022-07-22T03:16:53;17.40;99.90
17190;DHT22;8710;49.880;8.272;2022-07-22T03:26:43;17.40;99.90
17190;DHT22;8710;49.880;8.272;2022-07-22T03:31:37;17.40;99.90
17190;DHT22;8710;49.880;8.272;2022-07-22T03:36:31;17.30;99.90
17190;DHT22;8710;49.880;8.272;2022-07-22T03:38:59;17.30;99.90
17190;DHT22;8710;49.880;8.272;2022-07-22T03:41:26;17.30;99.90
17190;DHT22;8710;49.880;8.272;2022-07-22T03:46:20;17.30;99.90
17190;DHT22;8710;49.880;8.272;2022-07-22T03:51:14;17.30;99.90
17190;DHT22;8710;49.880;8.272;2022-07-22T03:56:10;14.00;99.90
17190;DHT22;8710;49.880;8.272;2022-07-22T03:58:37;17.20;99.90
17190;DHT22;8710;49.880;8.272;2022-07-22T04:08:25;17.20;99.90
17190;DHT22;8710;49.880;8.272;2022-07-22T04:13:24;17.20;99.90
17190;DHT22;8710;49.880;8.272;2022-07-22T04:20:45;17.30;99.90
17190;DHT22;8710;49.880;8.272;2022-07-22T04:30:36;17.50;99.90
17190;DHT22;8710;49.880;8.272;2022-07-22T04:35:30;17.60;99.90
17190;DHT22;8710;49.880;8.272;2022-07-22T04:40:24;17.70;99.90
17190;DHT22;8710;49.880;8.272;2022-07-22T04:45:18;17.80;99.90
17190;DHT22;8710;49.880;8.272;2022-07-22T04:52:41;18.00;99.90
17190;DHT22;8710;49.880;8.272;2022-07-22T04:57:35;18.20;99.90
17190;DHT22;8710;49.880;8.272;2022-07-22T05:00:03;18.20;99.90
17190;DHT22;8710;49.880;8.272;2022-07-22T05:09:53;18.60;99.90
17190;DHT22;8710;49.880;8.272;2022-07-22T05:14:47;18.80;99.90
17190;DHT22;8710;49.880;8.272;2022-07-22T05:19:41;19.00;99.90
17190;DHT22;8710;49.880;8.272;2022-07-22T05:22:09;19.10;99.90
17190;DHT22;8710;49.880;8.272;2022-07-22T05:31:58;19.30;99.90
17190;DHT22;8710;49.880;8.272;2022-07-22T05:34:25;19.40;99.90
17190;DHT22;8710;49.880;8.272;2022-07-22T05:39:20;19.60;99.90
17190;DHT22;8710;49.880;8.272;2022-07-22T05:49:09;20.00;99.90
17190;DHT22;8710;49.880;8.272;2022-07-22T05:56:31;20.40;99.90
17190;DHT22;8710;49.880;8.272;2022-07-22T06:03:53;20.70;99.90
17190;DHT22;8710;49.880;8.272;2022-07-22T06:08:48;20.90;99.90
17190;DHT22;8710;49.880;8.272;2022-07-22T06:16:10;21.60;99.90
17190;DHT22;8710;49.880;8.272;2022-07-22T06:23:33;21.80;99.90
17190;DHT22;8710;49.880;8.272;2022-07-22T06:28:29;22.10;99.90
17190;DHT22;8710;49.880;8.272;2022-07-22T06:30:57;22.40;99.50
17190;DHT22;8710;49.880;8.272;2022-07-22T06:33:24;22.70;98.90
17190;DHT22;8710;49.880;8.272;2022-07-22T06:35:51;22.90;98.40
17190;DHT22;8710;49.880;8.272;2022-07-22T06:38:18;23.20;97.60
17190;DHT22;8710;49.880;8.272;2022-07-22T06:40:44;23.70;96.90
17190;DHT22;8710;49.880;8.272;2022-07-22T06:45:39;25.10;94.40
17190;DHT22;8710;49.880;8.272;2022-07-22T06:48:07;25.80;92.80
17190;DHT22;8710;49.880;8.272;2022-07-22T06:50:34;26.30;91.90
17190;DHT22;8710;49.880;8.272;2022-07-22T06:53:01;27.30;91.20
17190;DHT22;8710;49.880;8.272;2022-07-22T06:55:28;28.10;90.00
17190;DHT22;8710;49.880;8.272;2022-07-22T06:57:55;28.80;84.30
17190;DHT22;8710;49.880;8.272;2022-07-22T07:00:22;29.50;81.10
17190;DHT22;8710;49.880;8.272;2022-07-22T07:02:49;29.90;79.40
17190;DHT22;8710;49.880;8.272;2022-07-22T07:05:17;30.10;76.30
17190;DHT22;8710;49.880;8.272;2022-07-22T07:07:44;30.80;75.70
17190;DHT22;8710;49.880;8.272;2022-07-22T07:10:11;31.40;69.30
17190;DHT22;8710;49.880;8.272;2022-07-22T07:12:40;31.60;70.40
17190;DHT22;8710;49.880;8.272;2022-07-22T07:15:08;31.30;67.80
17190;DHT22;8710;49.880;8.272;2022-07-22T07:17:35;31.60;70.60
17190;DHT22;8710;49.880;8.272;2022-07-22T07:20:02;32.20;67.30
17190;DHT22;8710;49.880;8.272;2022-07-22T07:22:31;32.90;65.70
17190;DHT22;8710;49.880;8.272;2022-07-22T07:25:02;32.70;60.40
17190;DHT22;8710;49.880;8.272;2022-07-22T07:27:29;33.10;63.60
17190;DHT22;8710;49.880;8.272;2022-07-22T07:29:55;33.60;62.20
17190;DHT22;8710;49.880;8.272;2022-07-22T07:32:22;34.00;57.80
17190;DHT22;8710;49.880;8.272;2022-07-22T07:34:49;34.10;57.10
17190;DHT22;8710;49.880;8.272;2022-07-22T07:39:45;34.90;56.20
17190;DHT22;8710;49.880;8.272;2022-07-22T07:42:12;34.60;53.50
17190;DHT22;8710;49.880;8.272;2022-07-22T07:47:06;35.60;52.80
17190;DHT22;8710;49.880;8.272;2022-07-22T07:49:33;35.20;52.60
17190;DHT22;8710;49.880;8.272;2022-07-22T07:52:00;35.70;52.50
17190;DHT22;8710;49.880;8.272;2022-07-22T07:56:55;36.40;51.70
17190;DHT22;8710;49.880;8.272;2022-07-22T07:59:22;36.30;49.90
17190;DHT22;8710;49.880;8.272;2022-07-22T08:04:16;37.40;48.30
17190;DHT22;8710;49.880;8.272;2022-07-22T08:06:47;38.00;47.10
17190;DHT22;8710;49.880;8.272;2022-07-22T08:11:41;38.10;42.80
17190;DHT22;8710;49.880;8.272;2022-07-22T08:14:10;37.80;44.90
17190;DHT22;8710;49.880;8.272;2022-07-22T08:16:39;38.20;42.40
17190;DHT22;8710;49.880;8.272;2022-07-22T08:19:12;37.60;43.20
17190;DHT22;8710;49.880;8.272;2022-07-22T08:21:39;37.40;44.20
17190;DHT22;8710;49.880;8.272;2022-07-22T08:24:09;37.60;45.20
17190;DHT22;8710;49.880;8.272;2022-07-22T08:26:37;38.10;45.00
17190;DHT22;8710;49.880;8.272;2022-07-22T08:29:04;38.60;43.70
17190;DHT22;8710;49.880;8.272;2022-07-22T08:31:38;39.30;41.90
17190;DHT22;8710;49.880;8.272;2022-07-22T08:34:07;39.60;41.30
17190;DHT22;8710;49.880;8.272;2022-07-22T08:36:35;40.40;40.40
17190;DHT22;8710;49.880;8.272;2022-07-22T08:39:04;40.80;38.70
17190;DHT22;8710;49.880;8.272;2022-07-22T08:41:35;41.10;38.40
17190;DHT22;8710;49.880;8.272;2022-07-22T08:44:08;40.90;37.00
17190;DHT22;8710;49.880;8.272;2022-07-22T08:46:43;41.00;37.40
17190;DHT22;8710;49.880;8.272;2022-07-22T08:49:14;41.30;36.90
17190;DHT22;8710;49.880;8.272;2022-07-22T08:51:47;41.40;36.40
17190;DHT22;8710;49.880;8.272;2022-07-22T08:54:20;42.10;35.60
17190;DHT22;8710;49.880;8.272;2022-07-22T08:56:51;42.50;34.60
17190;DHT22;8710;49.880;8.272;2022-07-22T08:59:20;42.60;33.70
17190;DHT22;8710;49.880;8.272;2022-07-22T09:02:06;42.60;34.30
17190;DHT22;8710;49.880;8.272;2022-07-22T09:04:50;42.50;33.80
17190;DHT22;8710;49.880;8.272;2022-07-22T09:07:31;42.50;33.60
17190;DHT22;8710;49.880;8.272;2022-07-22T09:10:05;41.90;34.70
17190;DHT22;8710;49.880;8.272;2022-07-22T09:12:35;41.70;34.00
17190;DHT22;8710;49.880;8.272;2022-07-22T09:15:25;41.60;33.10
17190;DHT22;8710;49.880;8.272;2022-07-22T09:18:03;41.70;34.30
17190;DHT22;8710;49.880;8.272;2022-07-22T09:20:36;41.70;33.20
17190;DHT22;8710;49.880;8.272;2022-07-22T09:23:12;41.60;33.50
17190;DHT22;8710;49.880;8.272;2022-07-22T09:25:44;41.50;33.80
17190;DHT22;8710;49.880;8.272;2022-07-22T09:28:23;42.50;33.60
17190;DHT22;8710;49.880;8.272;2022-07-22T09:30:54;42.70;32.20
17190;DHT22;8710;49.880;8.272;2022-07-22T09:33:25;43.70;32.10
17190;DHT22;8710;49.880;8.272;2022-07-22T09:36:03;44.00;30.70
17190;DHT22;8710;49.880;8.272;2022-07-22T09:38:33;44.30;29.00
17190;DHT22;8710;49.880;8.272;2022-07-22T09:41:07;43.50;28.70
17190;DHT22;8710;49.880;8.272;2022-07-22T09:43:36;43.30;29.20
17190;DHT22;8710;49.880;8.272;2022-07-22T09:46:05;44.20;29.60
17190;DHT22;8710;49.880;8.272;2022-07-22T09:48:37;45.20;28.10
17190;DHT22;8710;49.880;8.272;2022-07-22T09:51:06;44.70;28.30
17190;DHT22;8710;49.880;8.272;2022-07-22T09:53:37;44.80;28.20
17190;DHT22;8710;49.880;8.272;2022-07-22T09:56:05;44.50;28.90
17190;DHT22;8710;49.880;8.272;2022-07-22T09:58:33;44.10;28.60
17190;DHT22;8710;49.880;8.272;2022-07-22T10:01:04;43.90;28.70
17190;DHT22;8710;49.880;8.272;2022-07-22T10:03:36;45.00;28.30
17190;DHT22;8710;49.880;8.272;2022-07-22T10:06:07;45.30;27.20
17190;DHT22;8710;49.880;8.272;2022-07-22T10:08:39;45.60;27.30
17190;DHT22;8710;49.880;8.272;2022-07-22T10:11:07;46.30;26.50
17190;DHT22;8710;49.880;8.272;2022-07-22T10:13:38;46.60;26.20
17190;DHT22;8710;49.880;8.272;2022-07-22T10:16:08;46.70;26.20
17190;DHT22;8710;49.880;8.272;2022-07-22T10:19:04;46.40;25.50
17190;DHT22;8710;49.880;8.272;2022-07-22T10:21:33;46.80;25.30
17190;DHT22;8710;49.880;8.272;2022-07-22T10:24:11;47.40;25.40
17190;DHT22;8710;49.880;8.272;2022-07-22T10:26:54;46.90;24.50
17190;DHT22;8710;49.880;8.272;2022-07-22T10:29:29;47.10;25.00
17190;DHT22;8710;49.880;8.272;2022-07-22T10:32:22;46.70;24.80
17190;DHT22;8710;49.880;8.272;2022-07-22T10:35:23;46.80;24.90
17190;DHT22;8710;49.880;8.272;2022-07-22T10:37:55;46.70;24.70
17190;DHT22;8710;49.880;8.272;2022-07-22T10:40:25;47.30;24.90
17190;DHT22;8710;49.880;8.272;2022-07-22T10:43:09;47.70;24.30
17190;DHT22;8710;49.880;8.272;2022-07-22T10:45:47;47.80;24.10
17190;DHT22;8710;49.880;8.272;2022-07-22T10:48:23;47.10;23.20
17190;DHT22;8710;49.880;8.272;2022-07-22T10:53:55;46.80;23.20
17190;DHT22;8710;49.880;8.272;2022-07-22T10:56:25;47.30;23.60
17190;DHT22;8710;49.880;8.272;2022-07-22T10:58:55;47.40;23.70
17190;DHT22;8710;49.880;8.272;2022-07-22T11:01:25;47.10;23.90
17190;DHT22;8710;49.880;8.272;2022-07-22T11:03:53;46.70;23.60
17190;DHT22;8710;49.880;8.272;2022-07-22T11:06:25;47.00;23.80
17190;DHT22;8710;49.880;8.272;2022-07-22T11:08:54;47.00;24.40
17190;DHT22;8710;49.880;8.272;2022-07-22T11:11:32;47.50;23.90
17190;DHT22;8710;49.880;8.272;2022-07-22T11:13:59;47.80;22.70
17190;DHT22;8710;49.880;8.272;2022-07-22T11:16:27;47.40;22.00
17190;DHT22;8710;49.880;8.272;2022-07-22T11:18:56;47.40;22.80
17190;DHT22;8710;49.880;8.272;2022-07-22T11:21:26;48.00;22.20
17190;DHT22;8710;49.880;8.272;2022-07-22T11:23:55;46.10;22.20
17190;DHT22;8710;49.880;8.272;2022-07-22T11:26:26;46.20;23.30
17190;DHT22;8710;49.880;8.272;2022-07-22T11:28:58;46.50;22.90
17190;DHT22;8710;49.880;8.272;2022-07-22T11:31:25;46.40;22.20
17190;DHT22;8710;49.880;8.272;2022-07-22T11:34:04;46.90;22.10
17190;DHT22;8710;49.880;8.272;2022-07-22T11:36:33;46.80;21.30
17190;DHT22;8710;49.880;8.272;2022-07-22T11:39:01;47.00;21.50
17190;DHT22;8710;49.880;8.272;2022-07-22T11:41:29;47.40;21.10
17190;DHT22;8710;49.880;8.272;2022-07-22T11:43:57;48.30;21.30
17190;DHT22;8710;49.880;8.272;2022-07-22T11:46:24;48.20;21.60
17190;DHT22;8710;49.880;8.272;2022-07-22T11:48:52;47.30;21.40
17190;DHT22;8710;49.880;8.272;2022-07-22T11:51:20;47.20;21.40
17190;DHT22;8710;49.880;8.272;2022-07-22T11:53:48;46.70;21.20
17190;DHT22;8710;49.880;8.272;2022-07-22T11:56:15;46.40;21.90
17190;DHT22;8710;49.880;8.272;2022-07-22T11:58:43;45.80;22.00
17190;DHT22;8710;49.880;8.272;2022-07-22T12:01:13;45.40;22.40
17190;DHT22;8710;49.880;8.272;2022-07-22T12:03:43;45.90;22.80
17190;DHT22;8710;49.880;8.272;2022-07-22T12:06:12;45.90;22.30
17190;DHT22;8710;49.880;8.272;2022-07-22T12:08:42;46.00;22.40
17190;DHT22;8710;49.880;8.272;2022-07-22T12:11:13;45.40;22.20
17190;DHT22;8710;49.880;8.272;2022-07-22T12:13:42;45.50;22.30
17190;DHT22;8710;49.880;8.272;2022-07-22T12:16:24;45.50;22.50
17190;DHT22;8710;49.880;8.272;2022-07-22T12:18:54;46.00;22.10
17190;DHT22;8710;49.880;8.272;2022-07-22T12:21:22;45.30;22.10
17190;DHT22;8710;49.880;8.272;2022-07-22T12:23:51;46.00;21.70
17190;DHT22;8710;49.880;8.272;2022-07-22T12:26:19;45.90;21.50
17190;DHT22;8710;49.880;8.272;2022-07-22T12:29:16;45.60;21.40
17190;DHT22;8710;49.880;8.272;2022-07-22T12:31:44;46.10;21.60
17190;DHT22;8710;49.880;8.272;2022-07-22T12:34:11;45.30;21.50
17190;DHT22;8710;49.880;8.272;2022-07-22T12:36:39;45.60;21.90
17190;DHT22;8710;49.880;8.272;2022-07-22T12:39:14;46.00;21.70
17190;DHT22;8710;49.880;8.272;2022-07-22T12:41:47;45.90;22.10
17190;DHT22;8710;49.880;8.272;2022-07-22T12:44:19;46.20;21.70
17190;DHT22;8710;49.880;8.272;2022-07-22T12:46:47;46.20;21.80
17190;DHT22;8710;49.880;8.272;2022-07-22T12:49:16;46.30;20.80
17190;DHT22;8710;49.880;8.272;2022-07-22T12:52:05;46.30;21.30
17190;DHT22;8710;49.880;8.272;2022-07-22T12:54:32;46.00;21.40
17190;DHT22;8710;49.880;8.272;2022-07-22T12:57:00;45.80;21.40
17190;DHT22;8710;49.880;8.272;2022-07-22T12:59:27;45.80;21.90
17190;DHT22;8710;49.880;8.272;2022-07-22T13:01:54;45.80;21.90
17190;DHT22;8710;49.880;8.272;2022-07-22T13:04:22;46.60;21.60
17190;DHT22;8710;49.880;8.272;2022-07-22T13:06:50;45.80;21.10
17190;DHT22;8710;49.880;8.272;2022-07-22T13:09:17;45.80;21.50
17190;DHT22;8710;49.880;8.272;2022-07-22T13:11:47;45.30;22.00
17190;DHT22;8710;49.880;8.272;2022-07-22T13:14:16;45.50;22.20
17190;DHT22;8710;49.880;8.272;2022-07-22T13:16:43;45.50;22.00
17190;DHT22;8710;49.880;8.272;2022-07-22T13:21:37;45.80;22.30
17190;DHT22;8710;49.880;8.272;2022-07-22T13:24:04;46.40;21.90
17190;DHT22;8710;49.880;8.272;2022-07-22T13:26:32;46.30;21.30
17190;DHT22;8710;49.880;8.272;2022-07-22T13:28:59;46.90;22.10
17190;DHT22;8710;49.880;8.272;2022-07-22T13:31:27;47.60;20.90
17190;DHT22;8710;49.880;8.272;2022-07-22T13:33:54;47.30;21.20
17190;DHT22;8710;49.880;8.272;2022-07-22T13:36:21;47.00;20.80
17190;DHT22;8710;49.880;8.272;2022-07-22T13:38:49;46.70;20.80
17190;DHT22;8710;49.880;8.272;2022-07-22T13:41:17;46.80;21.50
17190;DHT22;8710;49.880;8.272;2022-07-22T13:43:44;47.10;21.00
17190;DHT22;8710;49.880;8.272;2022-07-22T13:46:11;47.00;21.30
17190;DHT22;8710;49.880;8.272;2022-07-22T13:48:40;47.20;21.00
17190;DHT22;8710;49.880;8.272;2022-07-22T13:53:37;46.50;21.30
17190;DHT22;8710;49.880;8.272;2022-07-22T13:56:04;46.50;21.60
17190;DHT22;8710;49.880;8.272;2022-07-22T13:58:32;45.20;21.60
17190;DHT22;8710;49.880;8.272;2022-07-22T14:00:59;45.60;22.40
17190;DHT22;8710;49.880;8.272;2022-07-22T14:03:26;46.20;21.90
17190;DHT22;8710;49.880;8.272;2022-07-22T14:05:55;46.20;21.70
17190;DHT22;8710;49.880;8.272;2022-07-22T14:08:22;46.30;21.90
17190;DHT22;8710;49.880;8.272;2022-07-22T14:10:49;45.60;21.80
17190;DHT22;8710;49.880;8.272;2022-07-22T14:13:16;45.40;22.10
17190;DHT22;8710;49.880;8.272;2022-07-22T14:15:43;45.00;22.40
17190;DHT22;8710;49.880;8.272;2022-07-22T14:20:37;45.50;22.20
17190;DHT22;8710;49.880;8.272;2022-07-22T14:23:08;45.40;22.20
17190;DHT22;8710;49.880;8.272;2022-07-22T14:25:36;45.40;22.10
17190;DHT22;8710;49.880;8.272;2022-07-22T14:28:03;45.20;21.70
17190;DHT22;8710;49.880;8.272;2022-07-22T14:32:57;44.80;22.50
17190;DHT22;8710;49.880;8.272;2022-07-22T14:35:24;45.30;22.40
17190;DHT22;8710;49.880;8.272;2022-07-22T14:37:51;45.60;21.80
17190;DHT22;8710;49.880;8.272;2022-07-22T14:40:20;45.40;21.90
17190;DHT22;8710;49.880;8.272;2022-07-22T14:42:46;44.00;22.50
17190;DHT22;8710;49.880;8.272;2022-07-22T14:45:14;43.40;23.10
17190;DHT22;8710;49.880;8.272;2022-07-22T14:47:41;43.10;23.80
17190;DHT22;8710;49.880;8.272;2022-07-22T14:50:08;43.10;23.30
17190;DHT22;8710;49.880;8.272;2022-07-22T14:52:35;43.20;23.90
17190;DHT22;8710;49.880;8.272;2022-07-22T14:55:02;43.50;23.60
17190;DHT22;8710;49.880;8.272;2022-07-22T14:57:30;43.30;23.60
17190;DHT22;8710;49.880;8.272;2022-07-22T15:02:24;41.70;25.50
17190;DHT22;8710;49.880;8.272;2022-07-22T15:04:51;40.70;25.70
17190;DHT22;8710;49.880;8.272;2022-07-22T15:07:18;39.70;26.80
17190;DHT22;8710;49.880;8.272;2022-07-22T15:09:45;38.90;27.50
17190;DHT22;8710;49.880;8.272;2022-07-22T15:14:41;37.70;29.00
17190;DHT22;8710;49.880;8.272;2022-07-22T15:17:07;37.30;30.20
17190;DHT22;8710;49.880;8.272;2022-07-22T15:22:01;36.40;31.30
17190;DHT22;8710;49.880;8.272;2022-07-22T15:26:55;35.70;32.10
17190;DHT22;8710;49.880;8.272;2022-07-22T15:29:22;35.40;32.40
17190;DHT22;8710;49.880;8.272;2022-07-22T15:31:51;35.10;33.60
17190;DHT22;8710;49.880;8.272;2022-07-22T15:34:18;34.80;34.40
17190;DHT22;8710;49.880;8.272;2022-07-22T15:39:12;34.70;35.90
17190;DHT22;8710;49.880;8.272;2022-07-22T15:41:40;34.60;35.30
17190;DHT22;8710;49.880;8.272;2022-07-22T15:44:08;34.60;35.40
17190;DHT22;8710;49.880;8.272;2022-07-22T15:46:35;34.60;35.40
17190;DHT22;8710;49.880;8.272;2022-07-22T15:49:04;34.70;35.50
17190;DHT22;8710;49.880;8.272;2022-07-22T15:51:31;34.70;35.50
17190;DHT22;8710;49.880;8.272;2022-07-22T15:53:58;34.70;35.70
17190;DHT22;8710;49.880;8.272;2022-07-22T15:56:25;34.60;35.70
17190;DHT22;8710;49.880;8.272;2022-07-22T16:01:36;34.60;35.30
17190;DHT22;8710;49.880;8.272;2022-07-22T16:04:05;34.60;35.30
17190;DHT22;8710;49.880;8.272;2022-07-22T16:06:32;34.50;36.50
17190;DHT22;8710;49.880;8.272;2022-07-22T16:08:59;34.40;37.00
17190;DHT22;8710;49.880;8.272;2022-07-22T16:11:26;34.30;37.00
17190;DHT22;8710;49.880;8.272;2022-07-22T16:13:53;34.30;36.80
17190;DHT22;8710;49.880;8.272;2022-07-22T16:16:20;34.30;36.30
17190;DHT22;8710;49.880;8.272;2022-07-22T16:21:16;33.90;36.90
17190;DHT22;8710;49.880;8.272;2022-07-22T16:23:43;33.60;37.00
17190;DHT22;8710;49.880;8.272;2022-07-22T16:26:10;33.50;37.80
17190;DHT22;8710;49.880;8.272;2022-07-22T16:28:37;33.40;38.00
17190;DHT22;8710;49.880;8.272;2022-07-22T16:31:10;33.30;39.20
17190;DHT22;8710;49.880;8.272;2022-07-22T16:36:05;33.30;38.30
17190;DHT22;8710;49.880;8.272;2022-07-22T16:38:33;33.50;39.30
17190;DHT22;8710;49.880;8.272;2022-07-22T16:41:00;33.60;38.00
17190;DHT22;8710;49.880;8.272;2022-07-22T16:43:27;33.80;39.20
17190;DHT22;8710;49.880;8.272;2022-07-22T16:45:54;33.80;38.10
17190;DHT22;8710;49.880;8.272;2022-07-22T16:48:21;33.90;38.20
17190;DHT22;8710;49.880;8.272;2022-07-22T16:53:15;33.80;38.00
17190;DHT22;8710;49.880;8.272;2022-07-22T16:55:43;33.70;37.80
17190;DHT22;8710;49.880;8.272;2022-07-22T17:00:37;33.80;38.20
17190;DHT22;8710;49.880;8.272;2022-07-22T17:05:32;33.70;38.10
17190;DHT22;8710;49.880;8.272;2022-07-22T17:07:59;33.70;38.70
17190;DHT22;8710;49.880;8.272;2022-07-22T17:10:25;33.50;39.40
17190;DHT22;8710;49.880;8.272;2022-07-22T17:12:54;33.50;40.20
17190;DHT22;8710;49.880;8.272;2022-07-22T17:17:48;33.20;40.30
17190;DHT22;8710;49.880;8.272;2022-07-22T17:22:42;32.70;41.60
17190;DHT22;8710;49.880;8.272;2022-07-22T17:25:09;32.50;42.80
17190;DHT22;8710;49.880;8.272;2022-07-22T17:27:36;32.20;43.90
17190;DHT22;8710;49.880;8.272;2022-07-22T17:30:06;31.90;45.10
17190;DHT22;8710;49.880;8.272;2022-07-22T17:32:33;31.80;45.60
17190;DHT22;8710;49.880;8.272;2022-07-22T17:35:00;31.70;46.60
17190;DHT22;8710;49.880;8.272;2022-07-22T17:37:27;31.60;47.10
17190;DHT22;8710;49.880;8.272;2022-07-22T17:39:54;31.60;47.60
17190;DHT22;8710;49.880;8.272;2022-07-22T17:42:21;31.60;48.50
17190;DHT22;8710;49.880;8.272;2022-07-22T17:44:48;31.50;48.90
17190;DHT22;8710;49.880;8.272;2022-07-22T17:47:16;31.60;48.90
17190;DHT22;8710;49.880;8.272;2022-07-22T17:49:45;31.50;49.10
17190;DHT22;8710;49.880;8.272;2022-07-22T17:52:12;31.50;49.30
17190;DHT22;8710;49.880;8.272;2022-07-22T17:54:39;31.40;50.20
17190;DHT22;8710;49.880;8.272;2022-07-22T17:57:06;31.30;50.40
17190;DHT22;8710;49.880;8.272;2022-07-22T17:59:33;31.20;50.80
17190;DHT22;8710;49.880;8.272;2022-07-22T18:02:01;31.20;51.20
17190;DHT22;8710;49.880;8.272;2022-07-22T18:04:29;31.00;51.30
17190;DHT22;8710;49.880;8.272;2022-07-22T18:06:56;30.90;51.70
17190;DHT22;8710;49.880;8.272;2022-07-22T18:09:24;30.80;51.50
17190;DHT22;8710;49.880;8.272;2022-07-22T18:11:51;30.80;51.80
17190;DHT22;8710;49.880;8.272;2022-07-22T18:14:18;30.70;52.20
17190;DHT22;8710;49.880;8.272;2022-07-22T18:16:44;30.60;52.20
17190;DHT22;8710;49.880;8.272;2022-07-22T18:19:11;30.50;52.70
17190;DHT22;8710;49.880;8.272;2022-07-22T18:21:39;30.40;52.60
17190;DHT22;8710;49.880;8.272;2022-07-22T18:24:07;30.20;53.10
17190;DHT22;8710;49.880;8.272;2022-07-22T18:26:34;30.10;53.60
17190;DHT22;8710;49.880;8.272;2022-07-22T18:29:01;30.00;54.10
17190;DHT22;8710;49.880;8.272;2022-07-22T18:31:28;30.00;54.50
17190;DHT22;8710;49.880;8.272;2022-07-22T18:33:55;29.90;54.80
17190;DHT22;8710;49.880;8.272;2022-07-22T18:36:22;29.80;54.80
17190;DHT22;8710;49.880;8.272;2022-07-22T18:38:50;29.80;55.10
17190;DHT22;8710;49.880;8.272;2022-07-22T18:41:17;29.70;54.70
17190;DHT22;8710;49.880;8.272;2022-07-22T18:43:44;29.60;54.80
17190;DHT22;8710;49.880;8.272;2022-07-22T18:46:11;29.50;54.70
17190;DHT22;8710;49.880;8.272;2022-07-22T18:48:37;29.40;55.40
17190;DHT22;8710;49.880;8.272;2022-07-22T18:51:05;29.40;55.60
17190;DHT22;8710;49.880;8.272;2022-07-22T18:53:32;29.30;56.00
17190;DHT22;8710;49.880;8.272;2022-07-22T18:56:01;29.20;56.10
17190;DHT22;8710;49.880;8.272;2022-07-22T18:58:27;29.10;56.30
17190;DHT22;8710;49.880;8.272;2022-07-22T19:00:54;28.90;57.50
17190;DHT22;8710;49.880;8.272;2022-07-22T19:03:21;28.70;58.00
17190;DHT22;8710;49.880;8.272;2022-07-22T19:05:48;28.50;58.20
17190;DHT22;8710;49.880;8.272;2022-07-22T19:08:15;28.50;58.60
17190;DHT22;8710;49.880;8.272;2022-07-22T19:10:42;28.40;58.70
17190;DHT22;8710;49.880;8.272;2022-07-22T19:13:10;28.30;59.40
17190;DHT22;8710;49.880;8.272;2022-07-22T19:15:37;28.30;59.90
17190;DHT22;8710;49.880;8.272;2022-07-22T19:18:04;28.20;59.70
17190;DHT22;8710;49.880;8.272;2022-07-22T19:20:31;28.10;60.00
17190;DHT22;8710;49.880;8.272;2022-07-22T19:22:58;28.00;60.20
17190;DHT22;8710;49.880;8.272;2022-07-22T19:25:25;28.00;61.10
17190;DHT22;8710;49.880;8.272;2022-07-22T19:27:52;27.90;61.50
17190;DHT22;8710;49.880;8.272;2022-07-22T19:30:20;27.80;62.10
17190;DHT22;8710;49.880;8.272;2022-07-22T19:32:47;27.70;62.50
17190;DHT22;8710;49.880;8.272;2022-07-22T19:35:14;27.60;63.10
17190;DHT22;8710;49.880;8.272;2022-07-22T19:37:41;27.50;63.20
17190;DHT22;8710;49.880;8.272;2022-07-22T19:40:09;27.40;64.00
17190;DHT22;8710;49.880;8.272;2022-07-22T19:42:36;27.30;64.90
17190;DHT22;8710;49.880;8.272;2022-07-22T19:45:03;27.30;64.70
17190;DHT22;8710;49.880;8.272;2022-07-22T19:47:32;27.20;65.90
17190;DHT22;8710;49.880;8.272;2022-07-22T19:49:59;27.10;67.30
17190;DHT22;8710;49.880;8.272;2022-07-22T19:52:26;27.00;67.90
17190;DHT22;8710;49.880;8.272;2022-07-22T19:54:53;26.90;67.20
17190;DHT22;8710;49.880;8.272;2022-07-22T19:57:20;26.70;67.40
17190;DHT22;8710;49.880;8.272;2022-07-22T19:59:47;26.70;68.00
17190;DHT22;8710;49.880;8.272;2022-07-22T20:02:14;26.60;68.40
17190;DHT22;8710;49.880;8.272;2022-07-22T20:04:42;26.60;68.90
17190;DHT22;8710;49.880;8.272;2022-07-22T20:07:09;26.50;69.00
17190;DHT22;8710;49.880;8.272;2022-07-22T20:09:36;26.50;69.40
17190;DHT22;8710;49.880;8.272;2022-07-22T20:12:03;26.40;69.40
17190;DHT22;8710;49.880;8.272;2022-07-22T20:14:30;26.40;69.90
17190;DHT22;8710;49.880;8.272;2022-07-22T20:16:57;26.20;70.30
17190;DHT22;8710;49.880;8.272;2022-07-22T20:21:52;26.10;71.10
17190;DHT22;8710;49.880;8.272;2022-07-22T20:24:19;26.10;71.40